sensor_id;sensor_type;location;lat;lon;timestamp;P1;durP1;ratioP1;P2;durP2;ratioP2
12956;SDS011;6543;48.836;10.092;2024-02-21T00:00:52;8.57;;;4.00;;
12956;SDS011;6543;48.836;10.092;2024-02-21T00:03:19;11.23;;;4.93;;
12956;SDS011;6543;48.836;10.092;2024-02-21T00:05:46;12.30;;;5.30;;
12956;SDS011;6543;48.836;10.092;2024-02-21T00:08:13;10.57;;;4.33;;
12956;SDS011;6543;48.836;10.092;2024-02-21T00:10:39;11.13;;;4.33;;
12956;SDS011;6543;48.836;10.092;2024-02-21T00:13:06;13.00;;;4.80;;
12956;SDS011;6543;48.836;10.092;2024-02-21T00:15:34;14.13;;;4.47;;
12956;SDS011;6543;48.836;10.092;2024-02-21T00:18:01;14.53;;;4.37;;
12956;SDS011;6543;48.836;10.092;2024-02-21T00:20:28;10.87;;;4.40;;
12956;SDS011;6543;48.836;10.092;2024-02-21T00:22:55;12.07;;;4.27;;
12956;SDS011;6543;48.836;10.092;2024-02-21T00:25:22;16.43;;;4.07;;
12956;SDS011;6543;48.836;10.092;2024-02-21T00:27:49;10.53;;;3.70;;
12956;SDS011;6543;48.836;10.092;2024-02-21T00:30:16;16.67;;;4.33;;
12956;SDS011;6543;48.836;10.092;2024-02-21T00:32:44;11.43;;;4.47;;
12956;SDS011;6543;48.836;10.092;2024-02-21T00:35:11;10.53;;;4.57;;
12956;SDS011;6543;48.836;10.092;2024-02-21T00:37:38;8.97;;;4.67;;
12956;SDS011;6543;48.836;10.092;2024-02-21T00:40:05;14.67;;;4.80;;
12956;SDS011;6543;48.836;10.092;2024-02-21T00:42:32;8.27;;;3.77;;
12956;SDS011;6543;48.836;10.092;2024-02-21T00:44:59;10.43;;;5.03;;
12956;SDS011;6543;48.836;10.092;2024-02-21T00:47:26;8.00;;;4.63;;
12956;SDS011;6543;48.836;10.092;2024-02-21T00:49:54;18.33;;;4.67;;
12956;SDS011;6543;48.836;10.092;2024-02-21T00:52:21;13.83;;;6.07;;
12956;SDS011;6543;48.836;10.092;2024-02-21T00:54:48;15.63;;;4.90;;
12956;SDS011;6543;48.836;10.092;2024-02-21T00:57:14;11.93;;;4.07;;
12956;SDS011;6543;48.836;10.092;2024-02-21T00:59:41;11.43;;;4.97;;
12956;SDS011;6543;48.836;10.092;2024-02-21T01:02:08;11.70;;;4.90;;
12956;SDS011;6543;48.836;10.092;2024-02-21T01:04:35;11.00;;;4.37;;
12956;SDS011;6543;48.836;10.092;2024-02-21T01:07:03;11.30;;;4.30;;
12956;SDS011;6543;48.836;10.092;2024-02-21T01:09:30;6.83;;;4.40;;
12956;SDS011;6543;48.836;10.092;2024-02-21T01:11:57;9.23;;;4.27;;
12956;SDS011;6543;48.836;10.092;2024-02-21T01:14:24;9.67;;;3.80;;
12956;SDS011;6543;48.836;10.092;2024-02-21T01:16:50;12.43;;;4.17;;
12956;SDS011;6543;48.836;10.092;2024-02-21T01:19:17;12.10;;;4.13;;
12956;SDS011;6543;48.836;10.092;2024-02-21T01:21:44;16.83;;;5.00;;
12956;SDS011;6543;48.836;10.092;2024-02-21T01:24:12;13.10;;;3.63;;
12956;SDS011;6543;48.836;10.092;2024-02-21T01:26:40;9.13;;;4.00;;
12956;SDS011;6543;48.836;10.092;2024-02-21T01:29:07;9.87;;;3.87;;
12956;SDS011;6543;48.836;10.092;2024-02-21T01:31:33;10.77;;;3.97;;
12956;SDS011;6543;48.836;10.092;2024-02-21T01:34:00;10.03;;;4.03;;
12956;SDS011;6543;48.836;10.092;2024-02-21T01:36:27;8.50;;;4.13;;
12956;SDS011;6543;48.836;10.092;2024-02-21T01:38:54;12.90;;;4.63;;
12956;SDS011;6543;48.836;10.092;2024-02-21T01:41:22;14.53;;;4.27;;
12956;SDS011;6543;48.836;10.092;2024-02-21T01:43:48;10.40;;;4.30;;
12956;SDS011;6543;48.836;10.092;2024-02-21T01:46:15;9.87;;;4.20;;
12956;SDS011;6543;48.836;10.092;2024-02-21T01:48:42;12.90;;;5.23;;
12956;SDS011;6543;48.836;10.092;2024-02-21T01:51:11;8.50;;;3.73;;
12956;SDS011;6543;48.836;10.092;2024-02-21T01:53:40;9.17;;;4.20;;
12956;SDS011;6543;48.836;10.092;2024-02-21T01:56:09;12.07;;;4.23;;
12956;SDS011;6543;48.836;10.092;2024-02-21T01:58:40;10.67;;;3.80;;
12956;SDS011;6543;48.836;10.092;2024-02-21T02:01:09;15.67;;;3.97;;
12956;SDS011;6543;48.836;10.092;2024-02-21T02:03:36;9.47;;;3.47;;
12956;SDS011;6543;48.836;10.092;2024-02-21T02:06:04;9.80;;;3.50;;
12956;SDS011;6543;48.836;10.092;2024-02-21T02:08:31;9.57;;;3.77;;
12956;SDS011;6543;48.836;10.092;2024-02-21T02:10:59;14.83;;;4.27;;
12956;SDS011;6543;48.836;10.092;2024-02-21T02:13:26;9.33;;;3.23;;
12956;SDS011;6543;48.836;10.092;2024-02-21T02:15:55;11.57;;;3.53;;
12956;SDS011;6543;48.836;10.092;2024-02-21T02:18:22;12.80;;;3.47;;
12956;SDS011;6543;48.836;10.092;2024-02-21T02:20:48;12.57;;;3.20;;
12956;SDS011;6543;48.836;10.092;2024-02-21T02:23:20;10.63;;;2.90;;
12956;SDS011;6543;48.836;10.092;2024-02-21T02:25:48;11.07;;;2.93;;
12956;SDS011;6543;48.836;10.092;2024-02-21T02:28:17;8.37;;;3.00;;
12956;SDS011;6543;48.836;10.092;2024-02-21T02:30:44;6.10;;;3.00;;
12956;SDS011;6543;48.836;10.092;2024-02-21T02:33:11;7.20;;;2.67;;
12956;SDS011;6543;48.836;10.092;2024-02-21T02:35:38;11.60;;;3.63;;
12956;SDS011;6543;48.836;10.092;2024-02-21T02:38:05;8.60;;;3.53;;
12956;SDS011;6543;48.836;10.092;2024-02-21T02:40:34;11.97;;;4.57;;
12956;SDS011;6543;48.836;10.092;2024-02-21T02:43:01;10.57;;;4.47;;
12956;SDS011;6543;48.836;10.092;2024-02-21T02:45:28;15.07;;;4.57;;
12956;SDS011;6543;48.836;10.092;2024-02-21T02:47:56;15.43;;;3.80;;
12956;SDS011;6543;48.836;10.092;2024-02-21T02:50:23;13.37;;;5.20;;
12956;SDS011;6543;48.836;10.092;2024-02-21T02:52:50;15.30;;;4.63;;
12956;SDS011;6543;48.836;10.092;2024-02-21T02:55:18;9.40;;;4.17;;
12956;SDS011;6543;48.836;10.092;2024-02-21T02:57:46;8.20;;;4.40;;
12956;SDS011;6543;48.836;10.092;2024-02-21T03:00:13;12.90;;;4.80;;
12956;SDS011;6543;48.836;10.092;2024-02-21T03:02:41;10.47;;;5.23;;
12956;SDS011;6543;48.836;10.092;2024-02-21T03:05:13;13.30;;;5.67;;
12956;SDS011;6543;48.836;10.092;2024-02-21T03:07:41;11.27;;;4.83;;
12956;SDS011;6543;48.836;10.092;2024-02-21T03:10:08;12.57;;;5.50;;
12956;SDS011;6543;48.836;10.092;2024-02-21T03:12:36;12.50;;;4.73;;
12956;SDS011;6543;48.836;10.092;2024-02-21T03:15:05;13.33;;;5.30;;
12956;SDS011;6543;48.836;10.092;2024-02-21T03:17:32;13.77;;;5.63;;
12956;SDS011;6543;48.836;10.092;2024-02-21T03:19:59;16.43;;;5.50;;
12956;SDS011;6543;48.836;10.092;2024-02-21T03:22:29;9.80;;;4.43;;
12956;SDS011;6543;48.836;10.092;2024-02-21T03:24:56;13.40;;;4.23;;
12956;SDS011;6543;48.836;10.092;2024-02-21T03:27:23;11.73;;;5.20;;
12956;SDS011;6543;48.836;10.092;2024-02-21T03:29:50;7.87;;;4.63;;
12956;SDS011;6543;48.836;10.092;2024-02-21T03:32:18;11.20;;;4.97;;
12956;SDS011;6543;48.836;10.092;2024-02-21T03:34:45;10.80;;;5.17;;
12956;SDS011;6543;48.836;10.092;2024-02-21T03:37:12;10.47;;;5.43;;
12956;SDS011;6543;48.836;10.092;2024-02-21T03:39:39;9.67;;;4.47;;
12956;SDS011;6543;48.836;10.092;2024-02-21T03:42:06;12.30;;;4.80;;
12956;SDS011;6543;48.836;10.092;2024-02-21T03:44:33;9.70;;;4.70;;
12956;SDS011;6543;48.836;10.092;2024-02-21T03:47:00;11.63;;;5.47;;
12956;SDS011;6543;48.836;10.092;2024-02-21T03:49:28;13.07;;;6.10;;
12956;SDS011;6543;48.836;10.092;2024-02-21T03:51:55;15.57;;;4.23;;
12956;SDS011;6543;48.836;10.092;2024-02-21T03:54:22;7.17;;;3.27;;
12956;SDS011;6543;48.836;10.092;2024-02-21T03:56:49;8.10;;;3.33;;
12956;SDS011;6543;48.836;10.092;2024-02-21T03:59:16;9.90;;;3.00;;
12956;SDS011;6543;48.836;10.092;2024-02-21T04:01:43;8.83;;;3.03;;
12956;SDS011;6543;48.836;10.092;2024-02-21T04:04:09;18.27;;;2.93;;
12956;SDS011;6543;48.836;10.092;2024-02-21T04:06:38;9.77;;;2.73;;
12956;SDS011;6543;48.836;10.092;2024-02-21T04:09:12;8.47;;;2.90;;
12956;SDS011;6543;48.836;10.092;2024-02-21T04:11:39;14.07;;;2.70;;
12956;SDS011;6543;48.836;10.092;2024-02-21T04:14:06;10.67;;;2.70;;
12956;SDS011;6543;48.836;10.092;2024-02-21T04:16:33;9.87;;;2.80;;
12956;SDS011;6543;48.836;10.092;2024-02-21T04:19:00;6.70;;;2.43;;
12956;SDS011;6543;48.836;10.092;2024-02-21T04:21:27;13.57;;;2.87;;
12956;SDS011;6543;48.836;10.092;2024-02-21T04:23:55;11.17;;;2.70;;
12956;SDS011;6543;48.836;10.092;2024-02-21T04:26:22;7.13;;;3.03;;
12956;SDS011;6543;48.836;10.092;2024-02-21T04:28:49;9.20;;;2.33;;
12956;SDS011;6543;48.836;10.092;2024-02-21T04:31:15;14.40;;;3.13;;
12956;SDS011;6543;48.836;10.092;2024-02-21T04:33:42;9.70;;;2.67;;
12956;SDS011;6543;48.836;10.092;2024-02-21T04:36:09;12.47;;;3.17;;
12956;SDS011;6543;48.836;10.092;2024-02-21T04:38:36;7.30;;;2.90;;
12956;SDS011;6543;48.836;10.092;2024-02-21T04:41:05;5.93;;;2.43;;
12956;SDS011;6543;48.836;10.092;2024-02-21T04:43:33;9.27;;;2.67;;
12956;SDS011;6543;48.836;10.092;2024-02-21T04:45:59;14.70;;;2.90;;
12956;SDS011;6543;48.836;10.092;2024-02-21T04:48:26;12.57;;;3.00;;
12956;SDS011;6543;48.836;10.092;2024-02-21T04:50:54;7.23;;;2.83;;
12956;SDS011;6543;48.836;10.092;2024-02-21T04:53:20;14.90;;;3.80;;
12956;SDS011;6543;48.836;10.092;2024-02-21T04:55:47;8.47;;;2.60;;
12956;SDS011;6543;48.836;10.092;2024-02-21T04:58:15;7.53;;;2.53;;
12956;SDS011;6543;48.836;10.092;2024-02-21T05:00:42;10.70;;;2.50;;
12956;SDS011;6543;48.836;10.092;2024-02-21T05:03:09;9.50;;;2.67;;
12956;SDS011;6543;48.836;10.092;2024-02-21T05:05:36;6.93;;;2.63;;
12956;SDS011;6543;48.836;10.092;2024-02-21T05:08:03;13.50;;;3.50;;
12956;SDS011;6543;48.836;10.092;2024-02-21T05:10:30;14.00;;;4.47;;
12956;SDS011;6543;48.836;10.092;2024-02-21T05:12:57;15.00;;;4.53;;
12956;SDS011;6543;48.836;10.092;2024-02-21T05:15:25;14.53;;;3.60;;
12956;SDS011;6543;48.836;10.092;2024-02-21T05:17:52;10.23;;;3.73;;
12956;SDS011;6543;48.836;10.092;2024-02-21T05:20:19;9.23;;;4.17;;
12956;SDS011;6543;48.836;10.092;2024-02-21T05:22:45;13.87;;;4.20;;
12956;SDS011;6543;48.836;10.092;2024-02-21T05:25:12;9.47;;;3.60;;
12956;SDS011;6543;48.836;10.092;2024-02-21T05:27:39;10.40;;;4.33;;
12956;SDS011;6543;48.836;10.092;2024-02-21T05:30:06;9.10;;;4.03;;
12956;SDS011;6543;48.836;10.092;2024-02-21T05:32:36;15.83;;;5.83;;
12956;SDS011;6543;48.836;10.092;2024-02-21T05:35:03;19.90;;;6.57;;
12956;SDS011;6543;48.836;10.092;2024-02-21T05:37:30;16.23;;;6.63;;
12956;SDS011;6543;48.836;10.092;2024-02-21T05:39:57;14.03;;;6.53;;
12956;SDS011;6543;48.836;10.092;2024-02-21T05:42:24;26.53;;;10.57;;
12956;SDS011;6543;48.836;10.092;2024-02-21T05:44:50;23.77;;;8.63;;
12956;SDS011;6543;48.836;10.092;2024-02-21T05:47:17;19.20;;;6.57;;
12956;SDS011;6543;48.836;10.092;2024-02-21T05:49:46;19.00;;;6.27;;
12956;SDS011;6543;48.836;10.092;2024-02-21T05:52:14;11.90;;;4.67;;
12956;SDS011;6543;48.836;10.092;2024-02-21T05:54:40;13.07;;;4.57;;
12956;SDS011;6543;48.836;10.092;2024-02-21T05:57:07;13.23;;;4.47;;
12956;SDS011;6543;48.836;10.092;2024-02-21T05:59:34;10.97;;;4.93;;
12956;SDS011;6543;48.836;10.092;2024-02-21T06:02:05;14.33;;;4.63;;
12956;SDS011;6543;48.836;10.092;2024-02-21T06:04:32;15.23;;;4.33;;
12956;SDS011;6543;48.836;10.092;2024-02-21T06:07:00;16.20;;;5.13;;
12956;SDS011;6543;48.836;10.092;2024-02-21T06:09:27;21.03;;;6.53;;
12956;SDS011;6543;48.836;10.092;2024-02-21T06:11:54;16.40;;;6.80;;
12956;SDS011;6543;48.836;10.092;2024-02-21T06:14:20;13.37;;;6.33;;
12956;SDS011;6543;48.836;10.092;2024-02-21T06:16:47;13.30;;;6.87;;
12956;SDS011;6543;48.836;10.092;2024-02-21T06:19:14;22.30;;;8.90;;
12956;SDS011;6543;48.836;10.092;2024-02-21T06:21:41;23.93;;;10.67;;
12956;SDS011;6543;48.836;10.092;2024-02-21T06:24:09;26.93;;;9.40;;
12956;SDS011;6543;48.836;10.092;2024-02-21T06:26:37;17.77;;;7.70;;
12956;SDS011;6543;48.836;10.092;2024-02-21T06:29:05;14.00;;;5.93;;
12956;SDS011;6543;48.836;10.092;2024-02-21T06:31:32;9.03;;;5.03;;
12956;SDS011;6543;48.836;10.092;2024-02-21T06:33:59;12.00;;;5.30;;
12956;SDS011;6543;48.836;10.092;2024-02-21T06:36:26;13.33;;;6.70;;
12956;SDS011;6543;48.836;10.092;2024-02-21T06:38:53;13.37;;;6.30;;
12956;SDS011;6543;48.836;10.092;2024-02-21T06:41:21;14.20;;;6.93;;
12956;SDS011;6543;48.836;10.092;2024-02-21T06:43:48;19.60;;;8.17;;
12956;SDS011;6543;48.836;10.092;2024-02-21T06:46:22;14.20;;;6.73;;
12956;SDS011;6543;48.836;10.092;2024-02-21T06:48:50;16.77;;;7.53;;
12956;SDS011;6543;48.836;10.092;2024-02-21T06:51:17;16.87;;;7.73;;
12956;SDS011;6543;48.836;10.092;2024-02-21T06:53:44;23.00;;;8.67;;
12956;SDS011;6543;48.836;10.092;2024-02-21T06:56:11;26.47;;;9.20;;
12956;SDS011;6543;48.836;10.092;2024-02-21T06:58:39;23.00;;;8.10;;
12956;SDS011;6543;48.836;10.092;2024-02-21T07:01:06;23.90;;;9.40;;
12956;SDS011;6543;48.836;10.092;2024-02-21T07:03:33;15.30;;;7.10;;
12956;SDS011;6543;48.836;10.092;2024-02-21T07:06:00;27.07;;;9.70;;
12956;SDS011;6543;48.836;10.092;2024-02-21T07:08:27;25.70;;;8.93;;
12956;SDS011;6543;48.836;10.092;2024-02-21T07:10:54;19.30;;;7.33;;
12956;SDS011;6543;48.836;10.092;2024-02-21T07:13:21;15.07;;;6.57;;
12956;SDS011;6543;48.836;10.092;2024-02-21T07:15:51;14.63;;;6.70;;
12956;SDS011;6543;48.836;10.092;2024-02-21T07:18:18;10.93;;;5.37;;
12956;SDS011;6543;48.836;10.092;2024-02-21T07:20:46;7.63;;;4.63;;
12956;SDS011;6543;48.836;10.092;2024-02-21T07:23:13;11.57;;;5.40;;
12956;SDS011;6543;48.836;10.092;2024-02-21T07:25:40;12.73;;;4.30;;
12956;SDS011;6543;48.836;10.092;2024-02-21T07:28:11;16.67;;;4.53;;
12956;SDS011;6543;48.836;10.092;2024-02-21T07:30:39;9.47;;;4.27;;
12956;SDS011;6543;48.836;10.092;2024-02-21T07:33:07;9.43;;;4.43;;
12956;SDS011;6543;48.836;10.092;2024-02-21T07:35:34;7.93;;;4.03;;
12956;SDS011;6543;48.836;10.092;2024-02-21T07:38:02;8.67;;;4.40;;
12956;SDS011;6543;48.836;10.092;2024-02-21T07:40:29;12.43;;;4.43;;
12956;SDS011;6543;48.836;10.092;2024-02-21T07:42:57;9.80;;;4.07;;
12956;SDS011;6543;48.836;10.092;2024-02-21T07:45:23;10.60;;;5.00;;
12956;SDS011;6543;48.836;10.092;2024-02-21T07:47:51;12.50;;;5.10;;
12956;SDS011;6543;48.836;10.092;2024-02-21T07:50:20;9.60;;;5.03;;
12956;SDS011;6543;48.836;10.092;2024-02-21T07:52:47;10.27;;;5.70;;
12956;SDS011;6543;48.836;10.092;2024-02-21T07:55:14;12.57;;;5.60;;
12956;SDS011;6543;48.836;10.092;2024-02-21T07:57:41;12.10;;;6.73;;
12956;SDS011;6543;48.836;10.092;2024-02-21T08:00:09;18.57;;;6.47;;
12956;SDS011;6543;48.836;10.092;2024-02-21T08:02:44;12.07;;;6.43;;
12956;SDS011;6543;48.836;10.092;2024-02-21T08:05:12;15.53;;;8.50;;
12956;SDS011;6543;48.836;10.092;2024-02-21T08:07:41;18.10;;;8.23;;
12956;SDS011;6543;48.836;10.092;2024-02-21T08:10:08;15.60;;;6.63;;
12956;SDS011;6543;48.836;10.092;2024-02-21T08:12:35;12.43;;;6.10;;
12956;SDS011;6543;48.836;10.092;2024-02-21T08:15:02;14.77;;;6.10;;
12956;SDS011;6543;48.836;10.092;2024-02-21T08:17:30;13.37;;;6.30;;
12956;SDS011;6543;48.836;10.092;2024-02-21T08:19:57;12.60;;;5.57;;
12956;SDS011;6543;48.836;10.092;2024-02-21T08:22:24;16.33;;;5.83;;
12956;SDS011;6543;48.836;10.092;2024-02-21T08:24:52;9.70;;;5.30;;
12956;SDS011;6543;48.836;10.092;2024-02-21T08:27:19;9.60;;;5.03;;
12956;SDS011;6543;48.836;10.092;2024-02-21T08:29:46;9.53;;;4.80;;
12956;SDS011;6543;48.836;10.092;2024-02-21T08:32:14;10.73;;;5.20;;
12956;SDS011;6543;48.836;10.092;2024-02-21T08:34:41;8.73;;;4.77;;
12956;SDS011;6543;48.836;10.092;2024-02-21T08:37:08;11.40;;;4.67;;
12956;SDS011;6543;48.836;10.092;2024-02-21T08:39:35;10.23;;;4.60;;
12956;SDS011;6543;48.836;10.092;2024-02-21T08:42:04;11.83;;;4.43;;
12956;SDS011;6543;48.836;10.092;2024-02-21T08:44:31;9.50;;;2.93;;
12956;SDS011;6543;48.836;10.092;2024-02-21T08:46:58;8.40;;;2.40;;
12956;SDS011;6543;48.836;10.092;2024-02-21T08:49:27;3.70;;;1.50;;
12956;SDS011;6543;48.836;10.092;2024-02-21T08:51:54;9.33;;;1.90;;
12956;SDS011;6543;48.836;10.092;2024-02-21T08:54:20;6.90;;;1.50;;
12956;SDS011;6543;48.836;10.092;2024-02-21T08:56:51;7.50;;;2.10;;
12956;SDS011;6543;48.836;10.092;2024-02-21T08:59:19;11.60;;;1.93;;
12956;SDS011;6543;48.836;10.092;2024-02-21T09:01:50;8.25;;;1.77;;
12956;SDS011;6543;48.836;10.092;2024-02-21T09:04:20;6.50;;;2.07;;
12956;SDS011;6543;48.836;10.092;2024-02-21T09:06:53;9.77;;;3.50;;
12956;SDS011;6543;48.836;10.092;2024-02-21T09:09:23;6.23;;;1.70;;
12956;SDS011;6543;48.836;10.092;2024-02-21T09:11:58;4.03;;;1.73;;
12956;SDS011;6543;48.836;10.092;2024-02-21T09:14:32;7.47;;;1.70;;
12956;SDS011;6543;48.836;10.092;2024-02-21T09:16:58;5.90;;;1.43;;
12956;SDS011;6543;48.836;10.092;2024-02-21T09:19:25;7.10;;;2.60;;
12956;SDS011;6543;48.836;10.092;2024-02-21T09:21:52;11.37;;;1.53;;
12956;SDS011;6543;48.836;10.092;2024-02-21T09:24:19;6.13;;;1.70;;
12956;SDS011;6543;48.836;10.092;2024-02-21T09:26:46;8.77;;;1.60;;
12956;SDS011;6543;48.836;10.092;2024-02-21T09:29:13;6.07;;;1.80;;
12956;SDS011;6543;48.836;10.092;2024-02-21T09:31:43;4.13;;;1.40;;
12956;SDS011;6543;48.836;10.092;2024-02-21T09:34:10;6.43;;;1.40;;
12956;SDS011;6543;48.836;10.092;2024-02-21T09:36:37;7.90;;;1.83;;
12956;SDS011;6543;48.836;10.092;2024-02-21T09:39:09;6.80;;;1.60;;
12956;SDS011;6543;48.836;10.092;2024-02-21T09:41:44;5.73;;;1.50;;
12956;SDS011;6543;48.836;10.092;2024-02-21T09:44:15;6.50;;;1.63;;
12956;SDS011;6543;48.836;10.092;2024-02-21T09:46:49;3.50;;;1.47;;
12956;SDS011;6543;48.836;10.092;2024-02-21T09:49:25;5.37;;;1.43;;
12956;SDS011;6543;48.836;10.092;2024-02-21T09:52:03;5.53;;;1.90;;
12956;SDS011;6543;48.836;10.092;2024-02-21T09:54:32;8.97;;;2.90;;
12956;SDS011;6543;48.836;10.092;2024-02-21T09:57:00;10.33;;;2.37;;
12956;SDS011;6543;48.836;10.092;2024-02-21T09:59:27;3.37;;;1.50;;
12956;SDS011;6543;48.836;10.092;2024-02-21T10:02:08;7.97;;;2.00;;
12956;SDS011;6543;48.836;10.092;2024-02-21T10:04:36;8.63;;;2.10;;
12956;SDS011;6543;48.836;10.092;2024-02-21T10:07:06;5.80;;;1.90;;
12956;SDS011;6543;48.836;10.092;2024-02-21T10:09:34;5.93;;;1.67;;
12956;SDS011;6543;48.836;10.092;2024-02-21T10:12:07;4.87;;;1.63;;
12956;SDS011;6543;48.836;10.092;2024-02-21T10:14:35;6.10;;;1.60;;
12956;SDS011;6543;48.836;10.092;2024-02-21T10:17:03;9.13;;;2.03;;
12956;SDS011;6543;48.836;10.092;2024-02-21T10:19:38;8.17;;;1.83;;
12956;SDS011;6543;48.836;10.092;2024-02-21T10:22:06;6.20;;;2.23;;
12956;SDS011;6543;48.836;10.092;2024-02-21T10:24:35;8.67;;;2.23;;
12956;SDS011;6543;48.836;10.092;2024-02-21T10:27:04;2.97;;;1.50;;
12956;SDS011;6543;48.836;10.092;2024-02-21T10:29:33;6.07;;;1.50;;
12956;SDS011;6543;48.836;10.092;2024-02-21T10:32:06;4.87;;;1.80;;
12956;SDS011;6543;48.836;10.092;2024-02-21T10:37:30;7.40;;;1.53;;
12956;SDS011;6543;48.836;10.092;2024-02-21T10:40:35;9.13;;;2.17;;
12956;SDS011;6543;48.836;10.092;2024-02-21T10:43:13;4.67;;;1.43;;
12956;SDS011;6543;48.836;10.092;2024-02-21T10:45:49;6.10;;;1.90;;
12956;SDS011;6543;48.836;10.092;2024-02-21T10:48:20;3.97;;;1.57;;
12956;SDS011;6543;48.836;10.092;2024-02-21T10:51:02;4.13;;;1.43;;
12956;SDS011;6543;48.836;10.092;2024-02-21T10:53:41;4.20;;;1.47;;
12956;SDS011;6543;48.836;10.092;2024-02-21T10:56:26;5.13;;;1.53;;
12956;SDS011;6543;48.836;10.092;2024-02-21T11:02:16;5.37;;;1.47;;
12956;SDS011;6543;48.836;10.092;2024-02-21T11:04:43;2.97;;;1.70;;
12956;SDS011;6543;48.836;10.092;2024-02-21T11:07:13;2.67;;;1.10;;
12956;SDS011;6543;48.836;10.092;2024-02-21T11:09:50;5.23;;;1.50;;
12956;SDS011;6543;48.836;10.092;2024-02-21T11:12:21;6.03;;;1.40;;
12956;SDS011;6543;48.836;10.092;2024-02-21T11:14:52;5.50;;;1.27;;
12956;SDS011;6543;48.836;10.092;2024-02-21T11:17:29;5.77;;;1.37;;
12956;SDS011;6543;48.836;10.092;2024-02-21T11:19:56;4.00;;;1.33;;
12956;SDS011;6543;48.836;10.092;2024-02-21T11:22:25;4.07;;;1.10;;
12956;SDS011;6543;48.836;10.092;2024-02-21T11:25:05;6.70;;;1.50;;
12956;SDS011;6543;48.836;10.092;2024-02-21T11:27:36;7.13;;;1.70;;
12956;SDS011;6543;48.836;10.092;2024-02-21T11:30:05;4.07;;;1.40;;
12956;SDS011;6543;48.836;10.092;2024-02-21T11:32:39;4.73;;;1.50;;
12956;SDS011;6543;48.836;10.092;2024-02-21T11:35:07;6.67;;;1.77;;
12956;SDS011;6543;48.836;10.092;2024-02-21T11:37:38;7.73;;;1.50;;
12956;SDS011;6543;48.836;10.092;2024-02-21T11:40:08;7.53;;;1.60;;
12956;SDS011;6543;48.836;10.092;2024-02-21T11:42:36;3.30;;;1.60;;
12956;SDS011;6543;48.836;10.092;2024-02-21T11:45:03;5.43;;;1.53;;
12956;SDS011;6543;48.836;10.092;2024-02-21T11:47:31;2.87;;;1.40;;
12956;SDS011;6543;48.836;10.092;2024-02-21T11:50:09;3.87;;;1.43;;
12956;SDS011;6543;48.836;10.092;2024-02-21T11:52:38;2.43;;;1.47;;
12956;SDS011;6543;48.836;10.092;2024-02-21T11:55:06;3.43;;;1.33;;
12956;SDS011;6543;48.836;10.092;2024-02-21T11:57:33;10.30;;;1.90;;
12956;SDS011;6543;48.836;10.092;2024-02-21T12:00:13;8.03;;;1.57;;
12956;SDS011;6543;48.836;10.092;2024-02-21T12:02:41;3.17;;;1.30;;
12956;SDS011;6543;48.836;10.092;2024-02-21T12:05:08;5.73;;;1.90;;
12956;SDS011;6543;48.836;10.092;2024-02-21T12:07:38;6.03;;;1.63;;
12956;SDS011;6543;48.836;10.092;2024-02-21T12:10:07;4.13;;;1.60;;
12956;SDS011;6543;48.836;10.092;2024-02-21T12:12:35;3.73;;;1.60;;
12956;SDS011;6543;48.836;10.092;2024-02-21T12:15:03;5.77;;;1.87;;
12956;SDS011;6543;48.836;10.092;2024-02-21T12:17:30;5.80;;;1.80;;
12956;SDS011;6543;48.836;10.092;2024-02-21T12:19:59;3.13;;;1.80;;
12956;SDS011;6543;48.836;10.092;2024-02-21T12:22:29;5.60;;;1.80;;
12956;SDS011;6543;48.836;10.092;2024-02-21T12:24:59;6.70;;;1.90;;
12956;SDS011;6543;48.836;10.092;2024-02-21T12:27:29;5.43;;;1.90;;
12956;SDS011;6543;48.836;10.092;2024-02-21T12:29:56;5.23;;;1.70;;
12956;SDS011;6543;48.836;10.092;2024-02-21T12:32:23;4.73;;;1.43;;
12956;SDS011;6543;48.836;10.092;2024-02-21T12:34:49;7.13;;;2.47;;
12956;SDS011;6543;48.836;10.092;2024-02-21T12:37:16;5.67;;;2.00;;
12956;SDS011;6543;48.836;10.092;2024-02-21T12:39:44;4.10;;;2.27;;
12956;SDS011;6543;48.836;10.092;2024-02-21T12:42:13;5.00;;;3.00;;
12956;SDS011;6543;48.836;10.092;2024-02-21T12:44:40;8.50;;;2.00;;
12956;SDS011;6543;48.836;10.092;2024-02-21T12:47:07;5.00;;;2.03;;
12956;SDS011;6543;48.836;10.092;2024-02-21T12:49:34;5.00;;;1.93;;
12956;SDS011;6543;48.836;10.092;2024-02-21T12:52:01;5.00;;;1.67;;
12956;SDS011;6543;48.836;10.092;2024-02-21T12:54:28;12.07;;;1.70;;
12956;SDS011;6543;48.836;10.092;2024-02-21T12:56:56;5.47;;;1.40;;
12956;SDS011;6543;48.836;10.092;2024-02-21T12:59:29;3.00;;;1.57;;
12956;SDS011;6543;48.836;10.092;2024-02-21T13:01:56;8.27;;;1.77;;
12956;SDS011;6543;48.836;10.092;2024-02-21T13:04:23;3.87;;;1.30;;
12956;SDS011;6543;48.836;10.092;2024-02-21T13:06:50;2.90;;;1.40;;
12956;SDS011;6543;48.836;10.092;2024-02-21T13:09:17;3.03;;;1.70;;
12956;SDS011;6543;48.836;10.092;2024-02-21T13:11:45;3.83;;;1.93;;
12956;SDS011;6543;48.836;10.092;2024-02-21T13:14:12;2.53;;;1.40;;
12956;SDS011;6543;48.836;10.092;2024-02-21T13:16:40;7.90;;;1.27;;
12956;SDS011;6543;48.836;10.092;2024-02-21T13:19:07;4.30;;;1.33;;
12956;SDS011;6543;48.836;10.092;2024-02-21T13:21:35;5.43;;;1.80;;
12956;SDS011;6543;48.836;10.092;2024-02-21T13:24:02;4.23;;;2.00;;
12956;SDS011;6543;48.836;10.092;2024-02-21T13:26:29;1.93;;;1.20;;
12956;SDS011;6543;48.836;10.092;2024-02-21T13:28:56;4.77;;;1.47;;
12956;SDS011;6543;48.836;10.092;2024-02-21T13:31:23;4.97;;;1.70;;
12956;SDS011;6543;48.836;10.092;2024-02-21T13:33:51;5.50;;;1.70;;
12956;SDS011;6543;48.836;10.092;2024-02-21T13:36:18;4.70;;;1.80;;
12956;SDS011;6543;48.836;10.092;2024-02-21T13:38:45;5.63;;;1.57;;
12956;SDS011;6543;48.836;10.092;2024-02-21T13:41:13;2.43;;;1.40;;
12956;SDS011;6543;48.836;10.092;2024-02-21T13:43:39;5.20;;;1.60;;
12956;SDS011;6543;48.836;10.092;2024-02-21T13:46:05;6.37;;;1.80;;
12956;SDS011;6543;48.836;10.092;2024-02-21T13:48:34;3.40;;;1.87;;
12956;SDS011;6543;48.836;10.092;2024-02-21T13:51:02;3.47;;;1.50;;
12956;SDS011;6543;48.836;10.092;2024-02-21T13:53:29;4.70;;;1.27;;
12956;SDS011;6543;48.836;10.092;2024-02-21T13:55:56;3.40;;;1.40;;
12956;SDS011;6543;48.836;10.092;2024-02-21T13:58:22;7.73;;;1.63;;
12956;SDS011;6543;48.836;10.092;2024-02-21T14:00:51;6.63;;;1.90;;
12956;SDS011;6543;48.836;10.092;2024-02-21T14:03:18;6.40;;;1.87;;
12956;SDS011;6543;48.836;10.092;2024-02-21T14:05:45;4.77;;;1.63;;
12956;SDS011;6543;48.836;10.092;2024-02-21T14:08:14;3.37;;;1.50;;
12956;SDS011;6543;48.836;10.092;2024-02-21T14:10:42;7.63;;;2.20;;
12956;SDS011;6543;48.836;10.092;2024-02-21T14:13:09;2.73;;;1.50;;
12956;SDS011;6543;48.836;10.092;2024-02-21T14:15:36;4.97;;;1.57;;
12956;SDS011;6543;48.836;10.092;2024-02-21T14:18:06;5.00;;;1.40;;
12956;SDS011;6543;48.836;10.092;2024-02-21T14:20:34;6.27;;;1.53;;
12956;SDS011;6543;48.836;10.092;2024-02-21T14:23:02;3.80;;;1.73;;
12956;SDS011;6543;48.836;10.092;2024-02-21T14:25:32;3.43;;;0.90;;
12956;SDS011;6543;48.836;10.092;2024-02-21T14:28:07;5.27;;;1.40;;
12956;SDS011;6543;48.836;10.092;2024-02-21T14:30:35;4.57;;;1.40;;
12956;SDS011;6543;48.836;10.092;2024-02-21T14:33:02;5.83;;;1.30;;
12956;SDS011;6543;48.836;10.092;2024-02-21T14:35:30;5.63;;;1.20;;
12956;SDS011;6543;48.836;10.092;2024-02-21T14:37:56;10.27;;;2.20;;
12956;SDS011;6543;48.836;10.092;2024-02-21T14:40:26;4.07;;;1.30;;
12956;SDS011;6543;48.836;10.092;2024-02-21T14:42:56;2.43;;;1.20;;
12956;SDS011;6543;48.836;10.092;2024-02-21T14:45:23;3.87;;;1.63;;
12956;SDS011;6543;48.836;10.092;2024-02-21T14:47:49;5.77;;;1.63;;
12956;SDS011;6543;48.836;10.092;2024-02-21T14:50:16;8.05;;;1.60;;
12956;SDS011;6543;48.836;10.092;2024-02-21T14:52:43;2.57;;;1.37;;